sensor_id;sensor_type;location;lat;lon;timestamp;pressure;altitude;pressure_sealevel;temperature;humidity
72157;BME280;60035;52.122;5.406;2022-11-23T00:00:39;99705.84;;;7.78;100.00
72157;BME280;60035;52.122;5.406;2022-11-23T00:03:06;99715.97;;;7.80;100.00
72157;BME280;60035;52.122;5.406;2022-11-23T00:05:33;99715.03;;;7.82;100.00
72157;BME280;60035;52.122;5.406;2022-11-23T00:07:59;99709.94;;;7.82;100.00
72157;BME280;60035;52.122;5.406;2022-11-23T00:10:26;99702.22;;;7.84;100.00
72157;BME280;60035;52.122;5.406;2022-11-23T00:12:52;99714.91;;;7.86;100.00
72157;BME280;60035;52.122;5.406;2022-11-23T00:15:19;99709.81;;;7.86;100.00
72157;BME280;60035;52.122;5.406;2022-11-23T00:17:46;99709.81;;;7.86;100.00
72157;BME280;60035;52.122;5.406;2022-11-23T00:20:13;99716.56;;;7.87;100.00
72157;BME280;60035;52.122;5.406;2022-11-23T00:22:40;99710.66;;;7.86;100.00
72157;BME280;60035;52.122;5.406;2022-11-23T00:25:07;99714.81;;;7.89;100.00
72157;BME280;60035;52.122;5.406;2022-11-23T00:27:34;99735.22;;;7.89;100.00
72157;BME280;60035;52.122;5.406;2022-11-23T00:30:00;99735.16;;;7.90;100.00
72157;BME280;60035;52.122;5.406;2022-11-23T00:32:30;99735.97;;;7.91;100.00
72157;BME280;60035;52.122;5.406;2022-11-23T00:34:57;99733.34;;;7.92;100.00
72157;BME280;60035;52.122;5.406;2022-11-23T00:37:24;99737.56;;;7.93;100.00
72157;BME280;60035;52.122;5.406;2022-11-23T00:39:50;99736.75;;;7.93;100.00
72157;BME280;60035;52.122;5.406;2022-11-23T00:42:17;99734.13;;;7.94;100.00
72157;BME280;60035;52.122;5.406;2022-11-23T00:44:43;99736.63;;;7.96;100.00
72157;BME280;60035;52.122;5.406;2022-11-23T00:47:10;99744.28;;;7.96;100.00
72157;BME280;60035;52.122;5.406;2022-11-23T00:49:36;99745.06;;;7.98;100.00
72157;BME280;60035;52.122;5.406;2022-11-23T00:52:03;99749.25;;;7.99;100.00
72157;BME280;60035;52.122;5.406;2022-11-23T00:54:30;99754.31;;;8.00;100.00
72157;BME280;60035;52.122;5.406;2022-11-23T00:56:57;99750.88;;;8.01;100.00
72157;BME280;60035;52.122;5.406;2022-11-23T00:59:23;99745.72;;;8.03;100.00
72157;BME280;60035;52.122;5.406;2022-11-23T01:01:50;99755.06;;;8.03;100.00
72157;BME280;60035;52.122;5.406;2022-11-23T01:04:17;99749.09;;;8.04;100.00
72157;BME280;60035;52.122;5.406;2022-11-23T01:06:43;99764.41;;;8.04;100.00
72157;BME280;60035;52.122;5.406;2022-11-23T01:09:15;99765.22;;;8.04;100.00
72157;BME280;60035;52.122;5.406;2022-11-23T01:11:50;99766.06;;;8.05;100.00
72157;BME280;60035;52.122;5.406;2022-11-23T01:14:16;99762.66;;;8.04;100.00
72157;BME280;60035;52.122;5.406;2022-11-23T01:16:43;99777.94;;;8.06;100.00
72157;BME280;60035;52.122;5.406;2022-11-23T01:19:12;99775.38;;;8.06;100.00
72157;BME280;60035;52.122;5.406;2022-11-23T01:21:39;99775.38;;;8.06;100.00
72157;BME280;60035;52.122;5.406;2022-11-23T02:26:38;99815.72;;;7.94;100.00
72157;BME280;60035;52.122;5.406;2022-11-23T02:29:16;99807.28;;;7.92;100.00
72157;BME280;60035;52.122;5.406;2022-11-23T02:31:44;99807.34;;;7.91;100.00
72157;BME280;60035;52.122;5.406;2022-11-23T02:34:10;99812.44;;;7.91;100.00
72157;BME280;60035;52.122;5.406;2022-11-23T02:36:51;99811.66;;;7.89;100.00
72157;BME280;60035;52.122;5.406;2022-11-23T02:41:51;99815.97;;;7.87;100.00
72157;BME280;60035;52.122;5.406;2022-11-23T02:44:33;99814.25;;;7.87;100.00
72157;BME280;60035;52.122;5.406;2022-11-23T02:47:01;99821.06;;;7.87;100.00
72157;BME280;60035;52.122;5.406;2022-11-23T02:49:29;99820.25;;;7.86;100.00
72157;BME280;60035;52.122;5.406;2022-11-23T02:51:56;99820.31;;;7.84;100.00
72157;BME280;60035;52.122;5.406;2022-11-23T02:54:23;99822.00;;;7.84;100.00
72157;BME280;60035;52.122;5.406;2022-11-23T02:56:49;99820.31;;;7.84;100.00
72157;BME280;60035;52.122;5.406;2022-11-23T02:59:16;99822.88;;;7.83;100.00
72157;BME280;60035;52.122;5.406;2022-11-23T03:01:42;99826.28;;;7.83;100.00
72157;BME280;60035;52.122;5.406;2022-11-23T03:04:09;99827.97;;;7.84;100.00
72157;BME280;60035;52.122;5.406;2022-11-23T03:06:36;99823.72;;;7.83;100.00
72157;BME280;60035;52.122;5.406;2022-11-23T03:09:03;99822.06;;;7.82;100.00
72157;BME280;60035;52.122;5.406;2022-11-23T03:11:30;99834.81;;;7.82;100.00
72157;BME280;60035;52.122;5.406;2022-11-23T03:13:57;99826.28;;;7.83;100.00
72157;BME280;60035;52.122;5.406;2022-11-23T03:16:24;99827.97;;;7.83;100.00
72157;BME280;60035;52.122;5.406;2022-11-23T03:18:50;99825.50;;;7.81;100.00
72157;BME280;60035;52.122;5.406;2022-11-23T03:21:17;99829.72;;;7.82;100.00
72157;BME280;60035;52.122;5.406;2022-11-23T03:23:44;99823.81;;;7.80;100.00
72157;BME280;60035;52.122;5.406;2022-11-23T03:26:10;99822.19;;;7.79;100.00
72157;BME280;60035;52.122;5.406;2022-11-23T03:28:38;99830.72;;;7.78;100.00
72157;BME280;60035;52.122;5.406;2022-11-23T03:31:05;99837.56;;;7.76;100.00
72157;BME280;60035;52.122;5.406;2022-11-23T03:33:32;99835.00;;;7.76;100.00
72157;BME280;60035;52.122;5.406;2022-11-23T03:35:59;99835.91;;;7.75;100.00
72157;BME280;60035;52.122;5.406;2022-11-23T03:38:26;99835.00;;;7.76;100.00
72157;BME280;60035;52.122;5.406;2022-11-23T03:40:53;99830.81;;;7.75;100.00
72157;BME280;60035;52.122;5.406;2022-11-23T03:43:19;99832.50;;;7.75;100.00
72157;BME280;60035;52.122;5.406;2022-11-23T03:45:47;99838.50;;;7.74;100.00
72157;BME280;60035;52.122;5.406;2022-11-23T03:48:15;99837.66;;;7.73;100.00
72157;BME280;60035;52.122;5.406;2022-11-23T03:50:43;99836.78;;;7.74;100.00
72157;BME280;60035;52.122;5.406;2022-11-23T03:53:10;99837.72;;;7.72;100.00
72157;BME280;60035;52.122;5.406;2022-11-23T03:55:37;99836.00;;;7.72;100.00
72157;BME280;60035;52.122;5.406;2022-11-23T03:58:04;99839.44;;;7.71;100.00
72157;BME280;60035;52.122;5.406;2022-11-23T04:00:31;99830.13;;;7.70;100.00
72157;BME280;60035;52.122;5.406;2022-11-23T04:02:57;99827.59;;;7.70;100.00
72157;BME280;60035;52.122;5.406;2022-11-23T04:05:26;99830.13;;;7.70;100.00
72157;BME280;60035;52.122;5.406;2022-11-23T04:07:54;99837.78;;;7.70;100.00
72157;BME280;60035;52.122;5.406;2022-11-23T04:10:20;99827.59;;;7.70;100.00
72157;BME280;60035;52.122;5.406;2022-11-23T04:12:51;99831.78;;;7.71;100.00
72157;BME280;60035;52.122;5.406;2022-11-23T04:15:18;99836.88;;;7.71;100.00
72157;BME280;60035;52.122;5.406;2022-11-23T04:17:45;99828.34;;;7.72;100.00
72157;BME280;60035;52.122;5.406;2022-11-23T04:20:12;99839.44;;;7.71;100.00
72157;BME280;60035;52.122;5.406;2022-11-23T04:22:39;99830.09;;;7.72;100.00
72157;BME280;60035;52.122;5.406;2022-11-23T04:25:06;99820.72;;;7.72;100.00
72157;BME280;60035;52.122;5.406;2022-11-23T04:27:33;99824.09;;;7.73;100.00
72157;BME280;60035;52.122;5.406;2022-11-23T04:30:00;99824.88;;;7.75;100.00
72157;BME280;60035;52.122;5.406;2022-11-23T04:32:26;99819.72;;;7.76;100.00
72157;BME280;60035;52.122;5.406;2022-11-23T04:34:53;99826.53;;;7.76;100.00
72157;BME280;60035;52.122;5.406;2022-11-23T04:37:20;99828.28;;;7.75;100.00
72157;BME280;60035;52.122;5.406;2022-11-23T04:39:46;99828.28;;;7.75;100.00
72157;BME280;60035;52.122;5.406;2022-11-23T04:42:13;99828.28;;;7.75;100.00
72157;BME280;60035;52.122;5.406;2022-11-23T04:44:40;99824.88;;;7.75;100.00
72157;BME280;60035;52.122;5.406;2022-11-23T04:47:08;99830.81;;;7.75;100.00
72157;BME280;60035;52.122;5.406;2022-11-23T04:49:35;99828.28;;;7.75;100.00
72157;BME280;60035;52.122;5.406;2022-11-23T04:52:02;99828.22;;;7.77;100.00
72157;BME280;60035;52.122;5.406;2022-11-23T04:54:29;99835.91;;;7.75;100.00
72157;BME280;60035;52.122;5.406;2022-11-23T04:56:56;99834.25;;;7.74;100.00
72157;BME280;60035;52.122;5.406;2022-11-23T04:59:22;99828.31;;;7.74;100.00
72157;BME280;60035;52.122;5.406;2022-11-23T05:01:50;99831.75;;;7.73;100.00
72157;BME280;60035;52.122;5.406;2022-11-23T05:04:18;99841.09;;;7.72;100.00
72157;BME280;60035;52.122;5.406;2022-11-23T05:06:45;99830.97;;;7.71;100.00
72157;BME280;60035;52.122;5.406;2022-11-23T05:09:12;99830.16;;;7.68;100.00
72157;BME280;60035;52.122;5.406;2022-11-23T05:11:39;99831.16;;;7.64;100.00
72157;BME280;60035;52.122;5.406;2022-11-23T05:14:06;99822.00;;;7.59;100.00
72157;BME280;60035;52.122;5.406;2022-11-23T05:16:33;99817.09;;;7.54;100.00
72157;BME280;60035;52.122;5.406;2022-11-23T05:19:00;99812.19;;;7.48;100.00
72157;BME280;60035;52.122;5.406;2022-11-23T05:21:29;99817.34;;;7.46;99.94
72157;BME280;60035;52.122;5.406;2022-11-23T05:23:56;99827.59;;;7.45;100.00
72157;BME280;60035;52.122;5.406;2022-11-23T05:26:22;99836.09;;;7.44;100.00
72157;BME280;60035;52.122;5.406;2022-11-23T05:28:49;99827.59;;;7.45;100.00
72157;BME280;60035;52.122;5.406;2022-11-23T05:31:16;99825.81;;;7.47;100.00
72157;BME280;60035;52.122;5.406;2022-11-23T05:33:42;99838.44;;;7.50;100.00
72157;BME280;60035;52.122;5.406;2022-11-23T05:36:09;99841.81;;;7.50;100.00
72157;BME280;60035;52.122;5.406;2022-11-23T05:38:40;99845.13;;;7.53;100.00
72157;BME280;60035;52.122;5.406;2022-11-23T05:41:06;99845.13;;;7.53;100.00
72157;BME280;60035;52.122;5.406;2022-11-23T05:43:33;99838.28;;;7.55;100.00
72157;BME280;60035;52.122;5.406;2022-11-23T05:46:02;99839.03;;;7.58;100.00
72157;BME280;60035;52.122;5.406;2022-11-23T05:48:28;99844.88;;;7.60;100.00
72157;BME280;60035;52.122;5.406;2022-11-23T05:50:55;99850.78;;;7.62;100.00
72157;BME280;60035;52.122;5.406;2022-11-23T05:53:30;99852.38;;;7.65;100.00
72157;BME280;60035;52.122;5.406;2022-11-23T05:56:00;99856.63;;;7.66;99.95
72157;BME280;60035;52.122;5.406;2022-11-23T05:58:27;99854.81;;;7.68;99.73
72157;BME280;60035;52.122;5.406;2022-11-23T06:00:58;99849.72;;;7.68;99.57
72157;BME280;60035;52.122;5.406;2022-11-23T06:03:25;99854.78;;;7.70;99.65
72157;BME280;60035;52.122;5.406;2022-11-23T06:05:54;99852.22;;;7.70;99.56
72157;BME280;60035;52.122;5.406;2022-11-23T06:08:21;99853.00;;;7.72;99.32
72157;BME280;60035;52.122;5.406;2022-11-23T06:10:48;99854.69;;;7.73;99.17
72157;BME280;60035;52.122;5.406;2022-11-23T06:13:14;99848.75;;;7.72;98.88
72157;BME280;60035;52.122;5.406;2022-11-23T06:15:41;99847.06;;;7.71;99.05
72157;BME280;60035;52.122;5.406;2022-11-23T06:18:08;99852.16;;;7.71;98.97
72157;BME280;60035;52.122;5.406;2022-11-23T06:20:35;99842.81;;;7.72;98.72
72157;BME280;60035;52.122;5.406;2022-11-23T06:23:02;99846.25;;;7.71;98.71
72157;BME280;60035;52.122;5.406;2022-11-23T06:25:29;99843.69;;;7.71;98.31
72157;BME280;60035;52.122;5.406;2022-11-23T06:27:58;99857.25;;;7.71;98.48
72157;BME280;60035;52.122;5.406;2022-11-23T06:30:27;99848.81;;;7.71;98.32
72157;BME280;60035;52.122;5.406;2022-11-23T06:32:56;99850.53;;;7.70;98.04
72157;BME280;60035;52.122;5.406;2022-11-23T06:35:23;99851.41;;;7.69;98.26
72157;BME280;60035;52.122;5.406;2022-11-23T06:37:51;99857.38;;;7.68;98.05
72157;BME280;60035;52.122;5.406;2022-11-23T06:40:19;99857.44;;;7.66;97.80
72157;BME280;60035;52.122;5.406;2022-11-23T06:42:45;99858.25;;;7.67;97.95
72157;BME280;60035;52.122;5.406;2022-11-23T06:45:13;99859.16;;;7.66;98.02
72157;BME280;60035;52.122;5.406;2022-11-23T06:47:40;99861.78;;;7.63;98.00
72157;BME280;60035;52.122;5.406;2022-11-23T06:50:06;99866.00;;;7.64;98.05
72157;BME280;60035;52.122;5.406;2022-11-23T06:52:34;99859.25;;;7.63;97.93
72157;BME280;60035;52.122;5.406;2022-11-23T06:55:01;99859.34;;;7.60;97.52
72157;BME280;60035;52.122;5.406;2022-11-23T06:57:28;99872.19;;;7.57;97.45
72157;BME280;60035;52.122;5.406;2022-11-23T06:59:54;99868.13;;;7.51;97.47
72157;BME280;60035;52.122;5.406;2022-11-23T07:02:21;99874.13;;;7.48;97.36
72157;BME280;60035;52.122;5.406;2022-11-23T07:04:50;99877.69;;;7.44;97.48
72157;BME280;60035;52.122;5.406;2022-11-23T07:07:17;99875.25;;;7.41;97.43
72157;BME280;60035;52.122;5.406;2022-11-23T07:09:44;99882.94;;;7.40;97.46
72157;BME280;60035;52.122;5.406;2022-11-23T07:12:10;99881.25;;;7.39;97.44
72157;BME280;60035;52.122;5.406;2022-11-23T07:14:37;99886.41;;;7.37;97.73
72157;BME280;60035;52.122;5.406;2022-11-23T07:17:04;99889.94;;;7.33;97.86
72157;BME280;60035;52.122;5.406;2022-11-23T07:19:30;99897.81;;;7.25;97.83
72157;BME280;60035;52.122;5.406;2022-11-23T07:21:57;99893.72;;;7.20;97.80
72157;BME280;60035;52.122;5.406;2022-11-23T07:24:23;99898.16;;;7.13;98.30
72157;BME280;60035;52.122;5.406;2022-11-23T07:26:50;99898.31;;;7.08;98.08
72157;BME280;60035;52.122;5.406;2022-11-23T07:29:17;99897.63;;;7.03;98.12
72157;BME280;60035;52.122;5.406;2022-11-23T07:31:43;99903.69;;;6.99;98.25
72157;BME280;60035;52.122;5.406;2022-11-23T07:34:10;99908.88;;;6.96;98.51
72157;BME280;60035;52.122;5.406;2022-11-23T07:36:37;99917.38;;;6.95;98.71
72157;BME280;60035;52.122;5.406;2022-11-23T07:39:03;99911.31;;;6.99;99.00
72157;BME280;60035;52.122;5.406;2022-11-23T07:41:30;99916.25;;;7.04;98.87
72157;BME280;60035;52.122;5.406;2022-11-23T07:43:56;99918.75;;;7.07;99.23
72157;BME280;60035;52.122;5.406;2022-11-23T07:46:23;99921.13;;;7.11;99.03
72157;BME280;60035;52.122;5.406;2022-11-23T07:48:50;99921.88;;;7.15;99.07
72157;BME280;60035;52.122;5.406;2022-11-23T07:51:16;99930.22;;;7.20;98.61
72157;BME280;60035;52.122;5.406;2022-11-23T07:53:45;99930.16;;;7.22;99.04
72157;BME280;60035;52.122;5.406;2022-11-23T07:56:12;99930.06;;;7.25;99.09
72157;BME280;60035;52.122;5.406;2022-11-23T07:58:39;99940.16;;;7.28;98.87
72157;BME280;60035;52.122;5.406;2022-11-23T08:01:07;99944.28;;;7.32;98.77
72157;BME280;60035;52.122;5.406;2022-11-23T08:03:33;99939.09;;;7.35;98.42
72157;BME280;60035;52.122;5.406;2022-11-23T08:06:00;99942.44;;;7.37;98.41
72157;BME280;60035;52.122;5.406;2022-11-23T08:08:26;99949.09;;;7.41;98.55
72157;BME280;60035;52.122;5.406;2022-11-23T08:10:53;99953.25;;;7.44;98.44
72157;BME280;60035;52.122;5.406;2022-11-23T08:13:21;99951.44;;;7.47;98.56
72157;BME280;60035;52.122;5.406;2022-11-23T08:15:48;99947.13;;;7.49;98.14
72157;BME280;60035;52.122;5.406;2022-11-23T08:18:22;99952.97;;;7.53;98.20
72157;BME280;60035;52.122;5.406;2022-11-23T08:20:49;99942.69;;;7.56;98.05
72157;BME280;60035;52.122;5.406;2022-11-23T08:23:15;99946.84;;;7.59;97.81
72157;BME280;60035;52.122;5.406;2022-11-23T08:25:42;99950.13;;;7.62;97.69
72157;BME280;60035;52.122;5.406;2022-11-23T08:28:09;99958.47;;;7.67;97.78
72157;BME280;60035;52.122;5.406;2022-11-23T08:30:36;99956.69;;;7.70;97.53
72157;BME280;60035;52.122;5.406;2022-11-23T08:33:05;99951.53;;;7.73;96.94
72157;BME280;60035;52.122;5.406;2022-11-23T08:35:36;99948.00;;;7.77;97.07
72157;BME280;60035;52.122;5.406;2022-11-23T08:38:03;99952.09;;;7.81;97.02
72157;BME280;60035;52.122;5.406;2022-11-23T08:40:31;99953.59;;;7.87;96.67
72157;BME280;60035;52.122;5.406;2022-11-23T08:42:57;99954.22;;;7.93;96.64
72157;BME280;60035;52.122;5.406;2022-11-23T08:45:25;99950.00;;;7.94;96.53
72157;BME280;60035;52.122;5.406;2022-11-23T08:47:52;99943.09;;;7.96;96.01
72157;BME280;60035;52.122;5.406;2022-11-23T08:50:19;99946.22;;;8.04;96.04
72157;BME280;60035;52.122;5.406;2022-11-23T08:52:46;99950.25;;;8.11;96.04
72157;BME280;60035;52.122;5.406;2022-11-23T08:55:13;99944.28;;;8.12;95.82
72157;BME280;60035;52.122;5.406;2022-11-23T08:57:40;99948.47;;;8.13;95.24
72157;BME280;60035;52.122;5.406;2022-11-23T09:00:07;99943.28;;;8.16;95.17
72157;BME280;60035;52.122;5.406;2022-11-23T09:02:33;99948.38;;;8.16;94.57
72157;BME280;60035;52.122;5.406;2022-11-23T09:05:00;99949.19;;;8.17;94.38
72157;BME280;60035;52.122;5.406;2022-11-23T09:07:27;99940.66;;;8.18;94.12
72157;BME280;60035;52.122;5.406;2022-11-23T09:09:53;99939.78;;;8.19;94.08
72157;BME280;60035;52.122;5.406;2022-11-23T09:12:20;99941.34;;;8.23;93.62
72157;BME280;60035;52.122;5.406;2022-11-23T09:14:49;99945.59;;;8.23;93.30
72157;BME280;60035;52.122;5.406;2022-11-23T09:17:16;99941.34;;;8.23;92.79
72157;BME280;60035;52.122;5.406;2022-11-23T09:19:42;99937.91;;;8.24;92.14
72157;BME280;60035;52.122;5.406;2022-11-23T09:22:09;99932.66;;;8.29;92.23
72157;BME280;60035;52.122;5.406;2022-11-23T09:24:36;99936.75;;;8.33;91.87
72157;BME280;60035;52.122;5.406;2022-11-23T09:27:03;99930.44;;;8.43;91.89
72157;BME280;60035;52.122;5.406;2022-11-23T09:29:29;99931.22;;;8.47;91.09
72157;BME280;60035;52.122;5.406;2022-11-23T09:31:56;99927.75;;;8.48;90.54
72157;BME280;60035;52.122;5.406;2022-11-23T09:34:23;99927.00;;;8.46;89.99
72157;BME280;60035;52.122;5.406;2022-11-23T09:36:49;99924.22;;;8.52;89.85
72157;BME280;60035;52.122;5.406;2022-11-23T09:39:16;99922.72;;;8.70;89.95
72157;BME280;60035;52.122;5.406;2022-11-23T09:44:28;99916.81;;;8.92;88.25
72157;BME280;60035;52.122;5.406;2022-11-23T09:47:12;99900.56;;;8.94;87.53
72157;BME280;60035;52.122;5.406;2022-11-23T09:52:20;99907.22;;;8.98;86.57
72157;BME280;60035;52.122;5.406;2022-11-23T09:54:48;99902.03;;;9.00;85.99
72157;BME280;60035;52.122;5.406;2022-11-23T09:57:21;99907.03;;;9.03;85.61
72157;BME280;60035;52.122;5.406;2022-11-23T10:00:02;99898.63;;;8.99;84.97
72157;BME280;60035;52.122;5.406;2022-11-23T10:02:32;99895.13;;;9.02;85.15
72157;BME280;60035;52.122;5.406;2022-11-23T10:05:00;99887.25;;;9.08;84.86
72157;BME280;60035;52.122;5.406;2022-11-23T10:16:04;99859.94;;;9.10;84.29
72157;BME280;60035;52.122;5.406;2022-11-23T10:24:18;99855.50;;;9.15;83.55
72157;BME280;60035;52.122;5.406;2022-11-23T10:26:48;99858.88;;;9.16;83.33
72157;BME280;60035;52.122;5.406;2022-11-23T10:29:16;99857.84;;;9.20;83.57
72157;BME280;60035;52.122;5.406;2022-11-23T10:31:47;99851.84;;;9.21;83.49
72157;BME280;60035;52.122;5.406;2022-11-23T10:37:11;99851.78;;;9.23;82.54
72157;BME280;60035;52.122;5.406;2022-11-23T10:39:38;99866.03;;;9.28;82.89
72157;BME280;60035;52.122;5.406;2022-11-23T10:42:22;99876.19;;;9.30;82.39
72157;BME280;60035;52.122;5.406;2022-11-23T10:44:50;99862.53;;;9.31;82.57
72157;BME280;60035;52.122;5.406;2022-11-23T10:47:40;99869.16;;;9.35;82.10
72157;BME280;60035;52.122;5.406;2022-11-23T10:50:32;99864.97;;;9.34;81.71
72157;BME280;60035;52.122;5.406;2022-11-23T10:55:56;99858.66;;;9.21;81.89
72157;BME280;60035;52.122;5.406;2022-11-23T10:58:44;99862.38;;;9.13;82.21
72157;BME280;60035;52.122;5.406;2022-11-23T11:01:13;99852.09;;;9.15;82.18
72157;BME280;60035;52.122;5.406;2022-11-23T11:03:40;99856.06;;;9.22;81.81
72157;BME280;60035;52.122;5.406;2022-11-23T11:06:08;99851.28;;;9.35;81.62
72157;BME280;60035;52.122;5.406;2022-11-23T11:08:57;99850.88;;;9.46;81.10
72157;BME280;60035;52.122;5.406;2022-11-23T11:11:36;99856.53;;;9.32;80.61
72157;BME280;60035;52.122;5.406;2022-11-23T11:14:13;99858.63;;;9.22;80.75
72157;BME280;60035;52.122;5.406;2022-11-23T11:17:09;99863.97;;;9.16;80.91
72157;BME280;60035;52.122;5.406;2022-11-23T11:19:50;99864.09;;;9.13;81.35
72157;BME280;60035;52.122;5.406;2022-11-23T11:22:31;99852.22;;;9.12;81.60
72157;BME280;60035;52.122;5.406;2022-11-23T11:25:00;99851.94;;;9.18;81.63
72157;BME280;60035;52.122;5.406;2022-11-23T11:27:28;99866.47;;;9.17;81.22
72157;BME280;60035;52.122;5.406;2022-11-23T11:30:04;99851.19;;;9.16;81.17
72157;BME280;60035;52.122;5.406;2022-11-23T11:33:03;99847.88;;;9.14;81.45
72157;BME280;60035;52.122;5.406;2022-11-23T11:35:34;99854.72;;;9.13;81.59
72157;BME280;60035;52.122;5.406;2022-11-23T11:38:21;99859.88;;;9.12;81.62
72157;BME280;60035;52.122;5.406;2022-11-23T11:40:51;99845.31;;;9.14;81.78
72157;BME280;60035;52.122;5.406;2022-11-23T11:44:07;99837.34;;;9.22;81.79
72157;BME280;60035;52.122;5.406;2022-11-23T11:46:42;99833.78;;;9.26;81.12
72157;BME280;60035;52.122;5.406;2022-11-23T11:49:40;99831.94;;;9.29;81.18
72157;BME280;60035;52.122;5.406;2022-11-23T11:52:17;99825.06;;;9.31;81.20
72157;BME280;60035;52.122;5.406;2022-11-23T11:57:50;99809.53;;;9.57;80.67
72157;BME280;60035;52.122;5.406;2022-11-23T12:00:18;99818.44;;;9.67;80.40
72157;BME280;60035;52.122;5.406;2022-11-23T12:11:01;99791.88;;;9.71;79.17
72157;BME280;60035;52.122;5.406;2022-11-23T12:13:31;99803.75;;;9.72;79.37
72157;BME280;60035;52.122;5.406;2022-11-23T12:16:27;99779.94;;;9.72;79.54
72157;BME280;60035;52.122;5.406;2022-11-23T12:19:08;99784.91;;;9.75;79.48
72157;BME280;60035;52.122;5.406;2022-11-23T12:22:04;99788.97;;;9.79;79.11
72157;BME280;60035;52.122;5.406;2022-11-23T12:30:15;99780.47;;;9.99;77.76
72157;BME280;60035;52.122;5.406;2022-11-23T12:51:10;99771.25;;;10.14;77.32
72157;BME280;60035;52.122;5.406;2022-11-23T12:53:47;99762.00;;;10.11;76.77
72157;BME280;60035;52.122;5.406;2022-11-23T12:59:12;99771.66;;;10.05;76.86
72157;BME280;60035;52.122;5.406;2022-11-23T13:01:47;99766.72;;;10.02;76.95
72157;BME280;60035;52.122;5.406;2022-11-23T13:04:32;99758.25;;;9.99;77.16
72157;BME280;60035;52.122;5.406;2022-11-23T13:17:04;99749.81;;;9.78;77.27
72157;BME280;60035;52.122;5.406;2022-11-23T13:22:13;99752.59;;;9.74;77.87
72157;BME280;60035;52.122;5.406;2022-11-23T13:30:33;99749.44;;;9.67;77.87
72157;BME280;60035;52.122;5.406;2022-11-23T13:33:25;99751.25;;;9.65;78.03
72157;BME280;60035;52.122;5.406;2022-11-23T13:35:58;99755.47;;;9.66;78.05
72157;BME280;60035;52.122;5.406;2022-11-23T13:38:42;99759.72;;;9.65;78.02
72157;BME280;60035;52.122;5.406;2022-11-23T13:46:55;99781.22;;;9.61;78.07
72157;BME280;60035;52.122;5.406;2022-11-23T13:52:31;99788.13;;;9.59;78.75
72157;BME280;60035;52.122;5.406;2022-11-23T13:55:14;99804.75;;;9.49;80.14
72157;BME280;60035;52.122;5.406;2022-11-23T13:57:45;99802.63;;;9.38;81.46
72157;BME280;60035;52.122;5.406;2022-11-23T14:03:49;99800.34;;;9.10;84.85
72157;BME280;60035;52.122;5.406;2022-11-23T14:09:19;99797.94;;;8.84;87.42
72157;BME280;60035;52.122;5.406;2022-11-23T14:15:19;99808.66;;;8.72;88.85
72157;BME280;60035;52.122;5.406;2022-11-23T14:23:01;99815.47;;;8.49;91.12
72157;BME280;60035;52.122;5.406;2022-11-23T14:26:11;99813.97;;;8.42;91.75
72157;BME280;60035;52.122;5.406;2022-11-23T14:29:11;99819.31;;;8.36;92.27
72157;BME280;60035;52.122;5.406;2022-11-23T14:35:06;99834.00;;;8.29;93.50
72157;BME280;60035;52.122;5.406;2022-11-23T14:40:36;99857.00;;;8.28;94.21
72157;BME280;60035;52.122;5.406;2022-11-23T14:43:12;99855.41;;;8.25;94.62
72157;BME280;60035;52.122;5.406;2022-11-23T14:45:45;99850.38;;;8.24;94.59
72157;BME280;60035;52.122;5.406;2022-11-23T14:48:26;99848.69;;;8.23;95.21
72157;BME280;60035;52.122;5.406;2022-11-23T14:50:55;99847.06;;;8.22;95.47
72157;BME280;60035;52.122;5.406;2022-11-23T14:53:26;99851.41;;;8.18;95.85
72157;BME280;60035;52.122;5.406;2022-11-23T14:55:54;99854.03;;;8.16;96.08
72157;BME280;60035;52.122;5.406;2022-11-23T14:58:21;99849.00;;;8.15;96.20
72157;BME280;60035;52.122;5.406;2022-11-23T15:00:51;99855.84;;;8.13;96.24
72157;BME280;60035;52.122;5.406;2022-11-23T15:03:26;99856.78;;;8.10;96.63
72157;BME280;60035;52.122;5.406;2022-11-23T15:06:15;99856.78;;;8.10;96.53
72157;BME280;60035;52.122;5.406;2022-11-23T15:11:29;99858.53;;;8.08;97.02
72157;BME280;60035;52.122;5.406;2022-11-23T15:13:58;99857.78;;;8.06;97.07
72157;BME280;60035;52.122;5.406;2022-11-23T15:16:28;99857.00;;;8.04;97.29
72157;BME280;60035;52.122;5.406;2022-11-23T15:18:55;99865.56;;;8.03;97.25
72157;BME280;60035;52.122;5.406;2022-11-23T15:21:24;99869.81;;;8.03;97.11
72157;BME280;60035;52.122;5.406;2022-11-23T15:23:55;99869.84;;;8.01;97.64
72157;BME280;60035;52.122;5.406;2022-11-23T15:26:28;99872.53;;;7.98;97.75
72157;BME280;60035;52.122;5.406;2022-11-23T15:29:35;99871.72;;;7.96;97.98
72157;BME280;60035;52.122;5.406;2022-11-23T15:32:19;99876.06;;;7.94;97.95
72157;BME280;60035;52.122;5.406;2022-11-23T15:35:00;99878.63;;;7.94;98.48
72157;BME280;60035;52.122;5.406;2022-11-23T15:37:28;99878.63;;;7.92;98.51
72157;BME280;60035;52.122;5.406;2022-11-23T15:39:55;99877.81;;;7.92;98.61
72157;BME280;60035;52.122;5.406;2022-11-23T15:42:23;99877.81;;;7.92;98.46
72157;BME280;60035;52.122;5.406;2022-11-23T15:44:51;99880.44;;;7.90;98.89
72157;BME280;60035;52.122;5.406;2022-11-23T15:47:25;99869.44;;;7.88;98.74
72157;BME280;60035;52.122;5.406;2022-11-23T15:50:06;99874.53;;;7.88;98.87
72157;BME280;60035;52.122;5.406;2022-11-23T15:52:35;99885.59;;;7.87;98.94
72157;BME280;60035;52.122;5.406;2022-11-23T15:55:07;99886.50;;;7.86;99.30
72157;BME280;60035;52.122;5.406;2022-11-23T15:57:39;99898.34;;;7.87;99.14
72157;BME280;60035;52.122;5.406;2022-11-23T16:00:07;99890.72;;;7.87;99.45
72157;BME280;60035;52.122;5.406;2022-11-23T16:02:35;99894.09;;;7.88;99.21
72157;BME280;60035;52.122;5.406;2022-11-23T16:05:13;99909.41;;;7.88;99.47
72157;BME280;60035;52.122;5.406;2022-11-23T16:08:00;99898.31;;;7.89;99.71
72157;BME280;60035;52.122;5.406;2022-11-23T16:10:31;99897.47;;;7.88;99.45
72157;BME280;60035;52.122;5.406;2022-11-23T16:13:00;99902.56;;;7.88;99.36
72157;BME280;60035;52.122;5.406;2022-11-23T16:18:23;99909.41;;;7.88;99.90
72157;BME280;60035;52.122;5.406;2022-11-23T16:20:54;99917.88;;;7.88;99.77
72157;BME280;60035;52.122;5.406;2022-11-23T16:23:40;99922.19;;;7.86;100.00
72157;BME280;60035;52.122;5.406;2022-11-23T16:26:10;99923.81;;;7.89;100.00